Flight Track Log - Related Links

Times and Time Zones

All times are in EDT time to prevent confusion due to time zone crossing. See the SWA3228 flight status page for this flight to view local times or setup timezone preferences in your user account.

Time Position Orientation Groundspeed Altitude Reporting Facility
EDT Latitude Longitude Course Direction KTS MPH feet Rate Location/Type
Sat 05:20:43 PM 36.1289 -115.1136 57° Northeast 208 239 4,600  Level Los Center
Sat 05:21:24 PM 36.1356 -115.0544 82° East 238 274 6,800 3,262 Climbing Los Center
Sat 05:22:26 PM 36.1464 -114.9572 82° East 280 322 10,200 3,532 Climbing Los Center
Sat 05:23:28 PM 36.1547 -114.8517 84° East 296 341 14,100 3,484 Climbing Los Center
Sat 05:24:30 PM 36.1764 -114.7522 75° East 299 344 17,400 2,371 Climbing Los Center
Sat 05:25:32 PM 36.1878 -114.6428 83° East 320 368 19,000 1,597 Climbing Los Center
Sat 05:26:34 PM 36.2003 -114.5311 82° East 327 376 20,700 1,645 Climbing Los Center
Sat 05:27:36 PM 36.2356 -114.4147 69° East 361 415 22,400 2,177 Climbing Los Center
Sat 05:28:38 PM 36.2797 -114.2636 70° East 387 445 25,200 2,419 Climbing Los Center
Sat 05:29:40 PM 36.3167 -114.1300 71° East 404 465 27,400 1,355 Climbing Los Center
Sat 05:30:42 PM 36.4067 -114.0475 36° Northeast 414 476 28,000 1,645 Climbing Los Center
Sat 05:31:44 PM 36.5286 -113.9867 22° Northeast 423 487 30,800 1,935 Climbing Los Center
Sat 05:32:46 PM 36.6347 -113.9308 23° Northeast 416 479 32,000 1,210 Climbing Los Center
Sat 05:33:48 PM 36.7450 -113.8728 23° Northeast 426 490 33,300 1,403 Climbing Los Center
Sat 05:34:50 PM 36.8575 -113.8150 22° Northeast 433 498 34,900 1,258 Climbing Los Center
Sat 05:35:52 PM 36.9697 -113.7572 22° Northeast 434 499 35,900 1,104 Climbing Los Center
Sat 05:36:55 PM 37.0828 -113.6961 23° Northeast 439 505 37,200 1,104 Climbing Los Center
Sat 05:37:57 PM 37.1958 -113.6369 23° Northeast 439 505 38,200 871 Climbing Los Center
Sat 05:38:59 PM 37.3317 -113.5658 23° Northeast 439 505 39,000 432 Climbing Los Center
Sat 05:39:48 PM 37.4225 -113.5183 23° Northeast 440 506 39,000  Level Salt Center
Sat 05:40:49 PM 37.5375 -113.4569 23° Northeast 441 507 39,000  Level Salt Center
Sat 05:41:51 PM 37.6578 -113.3922 23° Northeast 441 507 39,000  Level Salt Center
Sat 05:42:53 PM 37.7686 -113.4047 355° North 445 512 39,000  Level Salt Center
Sat 05:43:54 PM 37.8808 -113.4553 340° North 430 495 39,000  Level Salt Center
Sat 05:44:56 PM 37.9939 -113.5050 341° North 430 495 39,000  Level Salt Center
Sat 05:45:57 PM 38.1061 -113.5550 341° North 429 494 39,000 -195 Level Salt Center
Sat 05:46:59 PM 38.2178 -113.6031 341° North 427 491 38,600 -488 Descending Salt Center
Sat 05:48:00 PM 38.3531 -113.6628 341° North 427 491 38,000 -293 Descending Salt Center
Sat 05:49:02 PM 38.4633 -113.7136 340° North 426 490 38,000  Level Salt Center
Sat 05:50:03 PM 38.5750 -113.7628 341° North 426 490 38,000  Level Salt Center
Sat 05:51:05 PM 38.6858 -113.8128 341° North 426 490 38,000  Level Salt Center
Sat 05:52:06 PM 38.7972 -113.8553 343° North 421 484 38,000  Level Salt Center
Sat 05:53:08 PM 38.9083 -113.8956 344° North 418 481 38,000  Level Salt Center
Sat 05:54:09 PM 39.0192 -113.9347 345° North 417 480 38,000  Level Salt Center
Sat 05:55:11 PM 39.1292 -113.9750 344° North 416 479 38,000  Level Salt Center
Sat 05:56:12 PM 39.2608 -114.0233 344° North 414 476 38,000  Level Salt Center
Sat 05:57:13 PM 39.3717 -114.0619 345° North 414 476 38,000  Level Salt Center
Sat 05:58:15 PM 39.4806 -114.1044 343° North 413 475 38,000  Level Salt Center
Sat 05:59:16 PM 39.5911 -114.1436 345° North 413 475 38,000  Level Salt Center
Sat 06:00:17 PM 39.7003 -114.1858 343° North 413 475 38,000  Level Salt Center
Sat 06:01:19 PM 39.8133 -114.2247 345° North 414 476 38,000  Level Salt Center
Sat 06:02:20 PM 39.9211 -114.2653 344° North 407 468 38,000  Level Salt Center
Sat 06:03:21 PM 40.0294 -114.3050 344° North 405 466 38,000  Level Salt Center
Sat 06:04:23 PM 40.1378 -114.3461 344° North 404 465 38,000  Level Salt Center
Sat 06:05:24 PM 40.2464 -114.3864 344° North 405 466 38,000  Level Salt Center
Sat 06:06:25 PM 40.3758 -114.4350 344° North 404 465 38,000  Level Salt Center
Sat 06:07:27 PM 40.4844 -114.4767 344° North 404 465 38,000  Level Salt Center
Sat 06:08:28 PM 40.5933 -114.5175 344° North 404 465 38,000  Level Salt Center
Sat 06:09:29 PM 40.7019 -114.5592 344° North 405 466 38,000  Level Salt Center
Sat 06:10:30 PM 40.8197 -114.6042 344° North 407 468 38,000  Level Salt Center
Sat 06:11:32 PM 40.9219 -114.6442 344° North 407 468 38,000  Level Salt Center
Sat 06:12:33 PM 41.0244 -114.6833 344° North 405 466 38,000  Level Salt Center
Sat 06:13:34 PM 41.1317 -114.7250 344° North 404 465 38,000  Level Salt Center
Sat 06:14:35 PM 41.2383 -114.7658 344° North 402 463 38,000  Level Salt Center
Sat 06:15:36 PM 41.3469 -114.8075 344° North 402 463 38,000  Level Salt Center
Sat 06:16:37 PM 41.4692 -114.8550 344° North 402 463 38,000  Level Salt Center
Sat 06:17:39 PM 41.5694 -114.8947 343° North 399 459 38,000  Level Salt Center
Sat 06:18:40 PM 41.6883 -114.9414 344° North 397 457 38,000  Level Salt Center
Sat 06:19:41 PM 41.7892 -114.9814 344° North 396 456 38,000  Level Salt Center
Sat 06:20:42 PM 41.8933 -115.0242 343° North 406 467 38,000  Level Salt Center
Sat 06:21:43 PM 42.0111 -115.0697 344° North 399 459 38,000  Level Salt Center
Sat 06:22:44 PM 42.1033 -115.1061 344° North 392 451 38,000  Level Salt Center
Sat 06:23:45 PM 42.2078 -115.1481 343° North 393 452 38,000  Level Salt Center
Sat 06:24:46 PM 42.3342 -115.2011 343° North 395 455 38,000  Level Salt Center
Sat 06:25:47 PM 42.4408 -115.2422 344° North 397 457 38,000  Level Salt Center
Sat 06:26:49 PM 42.5469 -115.2861 343° North 398 458 38,000  Level Salt Center
Sat 06:27:50 PM 42.6528 -115.3289 343° North 398 458 38,000  Level Salt Center
Sat 06:28:51 PM 42.7583 -115.3719 343° North 396 456 38,000  Level Salt Center
Sat 06:29:52 PM 42.8642 -115.4142 344° North 396 456 38,000  Level Salt Center
Sat 06:30:53 PM 42.9694 -115.4575 343° North 395 455 38,000  Level Salt Center
Sat 06:31:54 PM 43.0733 -115.5028 342° North 394 453 38,000  Level Salt Center
Sat 06:32:55 PM 43.1769 -115.5439 344° North 391 450 38,000  Level Salt Center
Sat 06:33:56 PM 43.2800 -115.5886 342° North 391 450 38,000  Level Salt Center
Sat 06:34:57 PM 43.3836 -115.6297 344° North 389 448 38,000  Level Salt Center
Sat 06:35:58 PM 43.5064 -115.6808 343° North 388 447 38,000  Level Salt Center
Sat 06:36:59 PM 43.6097 -115.7225 344° North 388 447 38,000  Level Salt Center
Sat 06:38:00 PM 43.7119 -115.7672 342° North 387 445 38,000  Level Salt Center
Sat 06:39:01 PM 43.8142 -115.8106 343° North 386 444 38,000  Level Salt Center
Sat 06:40:02 PM 43.9164 -115.8533 343° North 386 444 38,000  Level Salt Center
Sat 06:41:03 PM 44.0181 -115.8964 343° North 385 443 38,000  Level Salt Center
Sat 06:42:04 PM 44.1189 -115.9392 343° North 382 440 38,000  Level Salt Center
Sat 06:43:05 PM 44.2192 -115.9814 343° North 380 437 38,000  Level Salt Center
Sat 06:44:06 PM 44.3197 -116.0250 343° North 380 437 38,000  Level Salt Center
Sat 06:45:07 PM 44.4325 -116.0747 343° North 380 437 38,000  Level Salt Center
Sat 06:46:08 PM 44.5294 -116.1164 343° North 373 429 38,000  Level Salt Center
Sat 06:47:28 PM 44.6489 -116.1681 343° North 374 430 38,000  Level Seattle Center
Sat 06:48:28 PM 44.7486 -116.2114 343° North 374 430 38,000  Level Seattle Center
Sat 06:49:29 PM 44.8697 -116.2642 343° North 378 435 38,000  Level Seattle Center
Sat 06:50:29 PM 44.9714 -116.3103 342° North 380 437 38,000  Level Seattle Center
Sat 06:51:30 PM 45.0750 -116.3550 343° North 385 443 38,000  Level Seattle Center
Sat 06:52:31 PM 45.1789 -116.4017 342° North 389 448 38,000  Level Seattle Center
Sat 06:53:31 PM 45.2822 -116.4486 342° North 388 447 38,000  Level Seattle Center
Sat 06:54:32 PM 45.3861 -116.4939 343° North 389 448 38,000  Level Seattle Center
Sat 06:55:33 PM 45.4886 -116.5392 343° North 387 445 38,000  Level Seattle Center
Sat 06:56:34 PM 45.5853 -116.5833 342° North 367 422 38,000  Level Seattle Center
Sat 06:57:34 PM 45.6889 -116.6306 342° North 379 436 38,000  Level Seattle Center
Sat 06:58:35 PM 45.7911 -116.6764 343° North 383 441 38,000  Level Seattle Center
Sat 06:59:36 PM 45.8950 -116.7231 343° North 385 443 38,000 -50 Level Seattle Center
Sat 07:00:36 PM 45.9972 -116.7672 343° North 385 443 37,900 -595 Descending Seattle Center
Sat 07:01:37 PM 46.0975 -116.8128 343° North 379 436 36,800 -1,033 Descending Seattle Center
Sat 07:02:38 PM 46.1919 -116.8572 342° North 360 414 35,800 -1,721 Descending Seattle Center
Sat 07:03:39 PM 46.2858 -116.8997 343° North 357 411 33,300 -2,876 Descending Seattle Center
Sat 07:04:39 PM 46.3794 -116.9419 343° North 353 406 30,000 -3,372 Descending Seattle Center
Sat 07:05:40 PM 46.4811 -116.9897 342° North 377 434 26,500 -2,951 Descending Seattle Center
Sat 07:06:41 PM 46.5853 -117.0392 342° North 391 450 24,000 -2,281 Descending Seattle Center
Sat 07:07:41 PM 46.6889 -117.0861 343° North 391 450 21,900 -2,628 Descending Seattle Center
Sat 07:08:42 PM 46.7956 -117.1406 341° North 401 461 18,700 -2,951 Descending Seattle Center
Sat 07:09:43 PM 46.8981 -117.1897 342° North 392 451 15,900 -2,951 Descending Seattle Center
Sat 07:10:44 PM 47.0167 -117.2394 344° North 372 428 12,700 -2,083 Descending Seattle Center
Sat 07:11:44 PM 47.1156 -117.2589 352° North 363 418 11,700 -1,041 Descending Seattle Center
Sat 07:12:45 PM 47.2128 -117.2808 351° North 354 407 10,600 -836 Descending Seattle Center
Sat 07:13:46 PM 47.2978 -117.3022 350° North 300 345 10,000 -992 Descending Seattle Center
Sat 07:14:46 PM 47.3728 -117.3192 351° North 278 320 8,600 -1,388 Descending Seattle Center
Sat 07:15:47 PM 47.4472 -117.3364 351° North 276 318 7,200 -934 Descending Seattle Center
Sat 07:16:48 PM 47.5167 -117.3553 350° North 257 296 6,700 -738 Descending Seattle Center
Sat 07:17:49 PM 47.5825 -117.3900 340° North 255 293 5,700 -992 Descending Seattle Center
Sat 07:18:49 PM 47.6372 -117.4253 337° Northwest 196 226 4,700 -1,240 Descending Seattle Center
Sat 07:19:50 PM 47.6606 -117.4719 307° West 147 169 3,200 -1,082 Descending Seattle Center
Sat 07:20:51 PM 47.6358 -117.5119 227° Southwest 134 154 2,500 -446 Descending Seattle Center
Sat 07:21:51 PM 47.6225 -117.5311 224° Southwest 95 109 2,300 -200 Descending Seattle Center
Sat 07:23:00 PM 47.6167 -117.5333 341° North  Level FlightAware

Login

Don't have an account? Register now (free) for customized features, flight alerts, and more!